createdAt,value
2022-11-23T00:00:13.526Z,7.55
2022-11-23T00:05:43.918Z,8.05
2022-11-23T00:11:07.576Z,10.80
2022-11-23T00:16:34.796Z,10.00
2022-11-23T00:21:59.993Z,8.70
2022-11-23T00:27:28.700Z,7.88
2022-11-23T00:32:56.342Z,6.95
2022-11-23T00:38:26.808Z,10.65
2022-11-23T00:43:55.896Z,9.35
2022-11-23T00:49:24.504Z,9.98
2022-11-23T00:54:52.533Z,10.20
2022-11-23T01:00:19.868Z,13.75
2022-11-23T01:05:43.863Z,11.75
2022-11-23T01:11:14.275Z,9.38
2022-11-23T01:16:40.663Z,9.68
2022-11-23T01:22:11.110Z,8.23
2022-11-23T01:27:41.835Z,7.38
2022-11-23T01:33:06.241Z,8.10
2022-11-23T01:38:29.683Z,7.18
2022-11-23T01:43:56.947Z,7.50
2022-11-23T01:49:22.660Z,7.65
2022-11-23T01:54:49.594Z,6.57
2022-11-23T02:00:15.482Z,8.77
2022-11-23T02:05:44.667Z,6.65
2022-11-23T02:11:17.521Z,8.98
2022-11-23T02:16:42.055Z,6.85
2022-11-23T02:22:12.505Z,6.95
2022-11-23T02:27:38.379Z,5.68
2022-11-23T02:33:05.258Z,6.22
2022-11-23T02:38:35.229Z,6.68
2022-11-23T02:43:59.826Z,6.32
2022-11-23T02:49:22.755Z,6.47
2022-11-23T02:54:49.095Z,6.80
2022-11-23T03:05:44.590Z,8.77
2022-11-23T03:11:09.578Z,10.38
2022-11-23T03:16:39.865Z,13.40
2022-11-23T03:22:06.165Z,10.68
2022-11-23T03:27:32.769Z,11.55
2022-11-23T03:33:02.924Z,10.80
2022-11-23T03:38:32.242Z,9.82
2022-11-23T03:44:01.212Z,8.57
2022-11-23T03:49:32.025Z,8.30
2022-11-23T03:55:01.358Z,8.73
2022-11-23T04:00:31.833Z,7.43
2022-11-23T04:06:00.387Z,7.28
2022-11-23T04:11:58.312Z,8.63
2022-11-23T04:17:27.305Z,9.23
2022-11-23T04:22:57.940Z,9.25
2022-11-23T04:28:22.658Z,9.20
2022-11-23T04:33:51.806Z,9.85
2022-11-23T04:39:23.649Z,9.38
2022-11-23T04:45:12.633Z,9.13
2022-11-23T04:50:35.796Z,7.50
2022-11-23T04:56:07.215Z,7.75
2022-11-23T05:07:17.102Z,8.85
2022-11-23T05:12:48.621Z,11.30
2022-11-23T05:18:13.595Z,8.90
2022-11-23T05:23:38.561Z,6.80
2022-11-23T05:29:03.414Z,7.43
2022-11-23T05:34:27.739Z,7.18
2022-11-23T05:39:51.269Z,8.20
2022-11-23T05:45:16.567Z,7.32
2022-11-23T05:50:43.392Z,8.75
2022-11-23T05:56:22.678Z,8.90
2022-11-23T06:01:58.963Z,8.35
2022-11-23T06:07:27.511Z,9.38
2022-11-23T06:13:03.607Z,9.27
2022-11-23T06:18:28.770Z,9.47
2022-11-23T06:23:52.636Z,8.77
2022-11-23T06:29:17.832Z,9.23
2022-11-23T06:34:42.897Z,9.45
2022-11-23T06:40:13.560Z,10.63
2022-11-23T06:45:37.702Z,10.38
2022-11-23T06:51:06.984Z,10.38
2022-11-23T06:56:32.554Z,10.10
2022-11-23T07:01:55.849Z,11.68
2022-11-23T07:07:20.826Z,11.68
2022-11-23T07:12:57.198Z,9.75
2022-11-23T07:18:27.251Z,10.27
2022-11-23T07:23:57.682Z,9.90
2022-11-23T07:29:20.576Z,10.60
2022-11-23T07:34:44.340Z,11.27
2022-11-23T07:40:10.483Z,11.52
2022-11-23T07:45:39.102Z,10.32
2022-11-23T07:51:05.528Z,8.82
2022-11-23T07:56:36.376Z,8.02
2022-11-23T08:02:05.097Z,9.20
2022-11-23T08:07:34.819Z,7.65
2022-11-23T08:13:00.190Z,9.80
2022-11-23T08:18:26.008Z,8.97
2022-11-23T08:23:54.626Z,8.97
2022-11-23T08:29:20.273Z,9.00
2022-11-23T08:34:46.324Z,8.52
2022-11-23T08:40:11.601Z,7.18
2022-11-23T08:45:36.763Z,9.10
2022-11-23T08:51:01.014Z,9.43
2022-11-23T08:56:26.243Z,8.93
2022-11-23T09:01:57.403Z,10.32
2022-11-23T09:07:26.691Z,9.32
2022-11-23T09:12:53.661Z,11.38
2022-11-23T09:18:19.930Z,8.88
2022-11-23T09:23:48.615Z,10.43
2022-11-23T09:29:13.026Z,10.18
2022-11-23T09:34:43.046Z,8.73
2022-11-23T09:40:16.236Z,8.35
2022-11-23T09:45:49.941Z,10.20
2022-11-23T09:51:19.513Z,8.00
2022-11-23T09:56:51.263Z,8.88
2022-11-23T10:02:23.268Z,7.25
2022-11-23T10:08:03.523Z,10.00
2022-11-23T10:13:36.746Z,8.00
2022-11-23T10:19:16.726Z,9.25
2022-11-23T10:24:51.158Z,9.82
2022-11-23T10:30:20.574Z,8.82
2022-11-23T10:35:43.953Z,8.95
2022-11-23T10:41:15.104Z,8.52
2022-11-23T10:46:41.304Z,10.00
2022-11-23T10:52:29.263Z,9.85
2022-11-23T10:58:01.528Z,11.65
2022-11-23T11:03:26.633Z,8.18
2022-11-23T11:08:52.579Z,8.98
2022-11-23T11:14:23.379Z,9.70
2022-11-23T11:19:55.027Z,10.48
2022-11-23T11:25:30.684Z,9.98
2022-11-23T11:31:08.484Z,9.02
2022-11-23T11:36:45.312Z,8.52
2022-11-23T11:42:19.789Z,10.60
2022-11-23T11:47:54.441Z,8.13
2022-11-23T11:53:23.059Z,9.50
2022-11-23T11:58:55.386Z,9.65
2022-11-23T12:04:27.639Z,9.73
2022-11-23T12:09:56.921Z,11.02
2022-11-23T12:15:49.063Z,14.15
2022-11-23T12:21:37.440Z,13.77
